Nearby METAR Reports

 

KSNA - John Wayne Airport, California, USA
Distance from station: NE 2mi, 3km
Updated: Sun, 05-Dec-2021 9:53pm PST
Haze, Clear
Haze, Clear
 Wind from SE
Wind: SE 5 mph , 7 km/h
Temperature: 55°F , 13°C
Dew Point: 50°F , 10°C
Humidity: 82%
Barometer: 30.04 inHg , 1017.3 hPa
Summary: Haze
Clouds: Clear
Visibility: 4 miles , 6 km
2021/12/06 05:53 KSNA 060553Z 13004KT 4SM HZ CLR 13/10 A3004 RMK AO2 SLP171 T01330100 10178 20133 50000 $
KSLI - Los Alamitos Aaf, California, USA
Distance from station: NW 11mi, 18km
Updated: Sun, 05-Dec-2021 9:58pm PST
Mist, Clear
Mist, Clear
 Wind from calm
Wind: Calm
Temperature: 46°F , 8°C
Dew Point: 46°F , 8°C
Humidity: 100%
Barometer: 30.04 inHg , 1017.3 hPa
Summary: Mist
Clouds: Clear
Visibility: 1 5/8 miles , 2.6 km
2021/12/06 05:58 KSLI 060558Z AUTO 00000KT 1 5/8SM BR CLR 08/08 A3004 RMK AO2 VIS 1 5/8V2 1/2 SLP176 T00760076 10164 20076 50001
 
KFUL - Fullerton Muni, California, USA
Distance from station: NNW 16mi, 26km
Updated: Sun, 05-Dec-2021 9:53pm PST
Mist, Clear
Mist, Clear
 Wind from E
Wind: E 5 mph , 7 km/h
Temperature: 52°F , 11°C
Dew Point: 46°F , 8°C
Humidity: 82%
Barometer: 30.03 inHg , 1016.9 hPa
Summary: Mist
Clouds: Clear
Visibility: 2 1/2 miles , 4 km
2021/12/06 05:53 KFUL 060553Z AUTO 08004KT 2 1/2SM BR CLR 11/08 A3003 RMK AO2 SLP168 T01060083 10172 20106 58001
KLGB - Long Beach Muni, California, USA
Distance from station: NW 19mi, 30km
Updated: Sun, 05-Dec-2021 9:53pm PST
Mist, Clear
Mist, Clear
 Wind from calm
Wind: Calm
Temperature: 54°F , 12°C
Dew Point: 50°F , 10°C
Humidity: 88%
Barometer: 30.04 inHg , 1017.3 hPa
Summary: Mist
Clouds: Clear
Visibility: 4 miles , 6 km
2021/12/06 05:53 KLGB 060553Z 00000KT 4SM BR CLR 12/10 A3004 RMK AO2 SLP171 T01220100 10167 20117 58001
 
KAJO - Corona Muni, California, USA
Distance from station: NE 24mi, 39km
Updated: Sun, 05-Dec-2021 9:56pm PST
Mist, Clear
Mist, Clear
 Wind from calm
Wind: Calm
Temperature: 45°F , 7°C
Dew Point: 43°F , 6°C
Humidity: 93%
Barometer: 30.05 inHg , 1017.6 hPa
Summary: Mist
Clouds: Clear
Visibility: 2 1/2 miles , 4 km
2021/12/06 05:56 KAJO 060556Z AUTO 00000KT 2 1/2SM BR CLR 07/06 A3005 RMK AO2 SLP176 T00670056 10178 20061 50001
KTOA - Torrance Municip, California, USA
Distance from station: WNW 26mi, 42km
Updated: Sun, 05-Dec-2021 7:47pm PST
NOT Current
Haze, Clear
Haze, Clear
 Wind from calm
Wind: Calm
Temperature: 48°F , 9°C
Dew Point: 45°F , 7°C
Humidity: 87%
Barometer: 30.05 inHg , 1017.6 hPa
Summary: Haze
Clouds: Clear
Visibility: 5 miles , 8 km
2021/12/06 03:47 KTOA 060347Z 00000KT 5SM HZ SKC 09/07 A3005 RMK LAST
 
KCNO - Chino, California, USA
Distance from station: NE 28mi, 45km
Updated: Sun, 05-Dec-2021 9:53pm PST
Haze, Clear
Haze, Clear
 Wind from calm
Wind: Calm
Temperature: 50°F , 10°C
Dew Point: 45°F , 7°C
Humidity: 82%
Barometer: 30.05 inHg , 1017.6 hPa
Summary: Haze
Clouds: Clear
Visibility: 2 1/2 miles , 4 km
2021/12/06 05:53 KCNO 060553Z AUTO 00000KT 2 1/2SM HZ CLR 10/07 A3005 RMK AO2 SLP177 T01000072 10206 20072 50001
KEMT - El Monte, California, USA
Distance from station: NNW 30mi, 48km
Updated: Sun, 05-Dec-2021 7:45pm PST
NOT Current

 
2021/12/06 03:45 KEMT 060345Z CALMKT 3SM HZ CLR 12/10 A3005
 
KHHR - Hawthorne, California, USA
Distance from station: NW 31mi, 50km
Updated: Sun, 05-Dec-2021 9:53pm PST
Haze, Clear
Haze, Clear
 Wind from calm
Wind: Calm
Temperature: 55°F , 13°C
Dew Point: 52°F , 11°C
Humidity: 88%
Barometer: 30.04 inHg , 1017.3 hPa
Summary: Haze
Clouds: Clear
Visibility: 6 miles , 10 km
2021/12/06 05:53 KHHR 060553Z 00000KT 6SM HZ CLR 13/11 A3004 RMK AO2 SLP173 T01330106 10167 20133 51001
KPOC - La Verne/Bracket, California, USA
Distance from station: NNE 32mi, 52km
Updated: Thu, 02-Dec-2021 3:47pm PST
NOT Current
Clear
Clear
 Wind from W
Wind: W 10 mph , 17 km/h
Temperature: 61°F , 16°C
Dew Point: 50°F , 10°C
Humidity: 68%
Barometer: 30.06 inHg , 1017.9 hPa
Clouds: Clear
Visibility: 3 miles , 5 km
2021/12/02 23:47 KPOC 022347Z 26009KT 3SM CLR 16/10 A3006
 
KONT - Ontario, California, USA
Distance from station: NNE 33mi, 53km
Updated: Sun, 05-Dec-2021 9:53pm PST
Haze, Few clouds
Haze, Few clouds
 Wind from calm
Wind: Calm
Temperature: 52°F , 11°C
Dew Point: 45°F , 7°C
Humidity: 77%
Barometer: 30.04 inHg , 1017.3 hPa
Summary: Haze
Clouds: Few Clouds
Visibility: 3 miles , 5 km
Cloud details: Few Clouds 25000 ft
2021/12/06 05:53 KONT 060553Z 00000KT 3SM HZ FEW250 11/07 A3004 RMK AO2 SLP175 T01060072 10200 20100 53001 $
KRAL - Riverside, California, USA
Distance from station: NE 33mi, 53km
Updated: Sun, 05-Dec-2021 9:53pm PST
Haze, Clear
Haze, Clear
 Wind from N
Wind: N 3 mph , 6 km/h
Temperature: 52°F , 11°C
Dew Point: 46°F , 8°C
Humidity: 82%
Barometer: 30.05 inHg , 1017.6 hPa
Summary: Haze
Clouds: Clear
Visibility: 4 miles , 6 km
2021/12/06 05:53 KRAL 060553Z AUTO 35003KT 4SM HZ CLR 11/08 A3005 RMK AO2 SLP167 T01110083 10194 20100 51002
 
KCQT - USC/Los Angeles, California, USA
Distance from station: NW 34mi, 54km
Updated: Sun, 05-Dec-2021 9:52pm PST
Mist, Clear
Mist, Clear
 Wind from calm
Wind: Calm
Temperature: 54°F , 12°C
Dew Point: 50°F , 10°C
Humidity: 88%
Barometer: 30.04 inHg , 1017.3 hPa
Summary: Mist
Clouds: Clear
Visibility: 4 miles , 6 km
2021/12/06 05:52 KCQT 060552Z AUTO 00000KT 4SM BR CLR 12/10 A3004 RMK AO2 SLP172 T01170100 10172 20117 52002
KLAX - LAX/Los Angeles, California, USA
Distance from station: NW 34mi, 55km
Updated: Sun, 05-Dec-2021 9:53pm PST
Mist, Clear
Mist, Clear
 Wind from calm
Wind: Calm
Temperature: 55°F , 13°C
Dew Point: 54°F , 12°C
Humidity: 94%
Barometer: 30.04 inHg , 1017.3 hPa
Summary: Mist
Clouds: Clear
Visibility: 6 miles , 10 km
2021/12/06 05:53 KLAX 060553Z 00000KT 6SM BR CLR 13/12 A3004 RMK AO2 SLP172 T01330122 10156 20133 51003
 
KAVX - Avalon, California, USA
Distance from station: WSW 35mi, 56km
Updated: Sun, 05-Dec-2021 9:51pm PST
Clear
Clear
 Wind from NW
Wind: NW 7 mph , 11 km/h
Temperature: 68°F , 20°C
Dew Point: 30°F , -1°C
Humidity: 24%
Barometer: 30.06 inHg , 1017.9 hPa
Clouds: Clear
Visibility: 10 miles , 16 km
2021/12/06 05:51 KAVX 060551Z AUTO 32006KT 10SM CLR 20/M01 A3006 RMK AO2 SLP162 T02001006 10200 20161 50001